createdAt,value
2023-08-13T00:01:32.494Z,98979.00
2023-08-13T00:03:59.306Z,98973.41
2023-08-13T00:06:26.260Z,98985.75
2023-08-13T00:08:52.778Z,98983.19
2023-08-13T00:11:19.366Z,98979.63
2023-08-13T00:13:47.041Z,98988.66
2023-08-13T00:16:37.815Z,98989.72
2023-08-13T00:19:07.430Z,98988.91
2023-08-13T00:21:33.972Z,98991.56
2023-08-13T00:24:00.458Z,98998.78
2023-08-13T00:26:26.972Z,98997.75
2023-08-13T00:28:53.476Z,99006.28
2023-08-13T00:31:23.451Z,99004.53
2023-08-13T00:33:53.496Z,99000.53
2023-08-13T00:36:20.042Z,99013.19
2023-08-13T00:38:46.525Z,99015.59
2023-08-13T00:41:13.211Z,99008.59
2023-08-13T00:43:40.600Z,99012.16
2023-08-13T00:46:11.495Z,99004.06
2023-08-13T00:48:40.676Z,99015.66
2023-08-13T00:51:09.675Z,99014.59
2023-08-13T00:53:47.668Z,99012.75
2023-08-13T00:56:17.634Z,99018.09
2023-08-13T00:58:45.025Z,99020.72
2023-08-13T01:01:15.149Z,99024.38
2023-08-13T01:03:44.876Z,99032.63
2023-08-13T01:06:14.337Z,99030.19
2023-08-13T01:09:04.230Z,99029.25
2023-08-13T01:11:47.073Z,99033.94
2023-08-13T01:14:28.092Z,99038.63
2023-08-13T01:17:00.264Z,99028.69
2023-08-13T01:19:26.807Z,99027.69
2023-08-13T01:21:53.380Z,99033.09
2023-08-13T01:24:19.919Z,99030.47
2023-08-13T01:27:02.692Z,99030.50
2023-08-13T01:29:42.602Z,99029.38
2023-08-13T01:32:16.377Z,99032.06
2023-08-13T01:34:44.454Z,99038.34
2023-08-13T01:37:12.131Z,99036.72
2023-08-13T01:39:38.724Z,99038.53
2023-08-13T01:42:07.469Z,99041.22
2023-08-13T01:44:33.952Z,99042.09
2023-08-13T01:47:00.482Z,99044.88
2023-08-13T01:49:27.171Z,99041.22
2023-08-13T01:51:53.671Z,99044.00
2023-08-13T01:54:20.210Z,99042.41
2023-08-13T01:56:46.721Z,99048.84
2023-08-13T01:59:13.255Z,99045.41
2023-08-13T02:01:39.798Z,99048.84
2023-08-13T02:04:06.622Z,99037.41
2023-08-13T02:06:34.409Z,99042.06
2023-08-13T02:09:01.385Z,99040.03
2023-08-13T02:11:27.997Z,99033.72
2023-08-13T02:13:54.506Z,99035.47
2023-08-13T02:16:21.006Z,99034.00
2023-08-13T02:18:47.639Z,99033.56
2023-08-13T02:21:14.351Z,99044.38
2023-08-13T02:23:40.974Z,99033.56
2023-08-13T02:26:07.447Z,99029.69
2023-08-13T02:28:33.975Z,99031.88
2023-08-13T02:31:00.515Z,99034.47
2023-08-13T02:33:27.143Z,99034.91
2023-08-13T02:35:53.673Z,99032.19
2023-08-13T02:38:20.206Z,99035.38
2023-08-13T02:40:46.789Z,99039.66
2023-08-13T02:43:13.315Z,99042.34
2023-08-13T02:45:39.801Z,99043.47
2023-08-13T02:48:06.652Z,99040.00
2023-08-13T02:50:33.198Z,99041.56
2023-08-13T02:52:59.728Z,99033.28
2023-08-13T02:55:26.261Z,99040.41
2023-08-13T02:58:08.999Z,99043.41
2023-08-13T03:00:36.441Z,99042.59
2023-08-13T03:03:03.136Z,99050.50
2023-08-13T03:05:31.697Z,99047.78
2023-08-13T03:07:58.264Z,99046.03
2023-08-13T03:10:24.950Z,99042.50
2023-08-13T03:12:51.461Z,99035.63
2023-08-13T03:15:17.974Z,99043.31
2023-08-13T03:17:44.509Z,99038.09
2023-08-13T03:20:11.228Z,99042.63
2023-08-13T03:22:38.403Z,99041.22
2023-08-13T03:25:05.535Z,99038.28
2023-08-13T03:27:32.041Z,99036.03
2023-08-13T03:29:58.545Z,99041.16
2023-08-13T03:32:25.088Z,99031.44
2023-08-13T03:34:51.600Z,99037.69
2023-08-13T03:37:21.696Z,99027.69
2023-08-13T03:39:48.182Z,99029.59
2023-08-13T03:42:14.867Z,99043.22
2023-08-13T03:44:42.595Z,99047.59
2023-08-13T03:47:09.178Z,99042.38
2023-08-13T03:49:36.310Z,99036.13
2023-08-13T03:52:02.998Z,99039.56
2023-08-13T03:54:29.790Z,99038.34
2023-08-13T03:56:56.347Z,99043.41
2023-08-13T03:59:25.874Z,99040.53
2023-08-13T04:01:52.623Z,99047.59
2023-08-13T04:04:19.509Z,99042.50
2023-08-13T04:06:46.948Z,99036.25
2023-08-13T04:09:13.435Z,99047.75
2023-08-13T04:11:40.002Z,99040.53
2023-08-13T04:14:06.482Z,99040.97
2023-08-13T04:16:33.015Z,99037.81
2023-08-13T04:18:59.531Z,99039.19
2023-08-13T04:21:28.833Z,99041.59
2023-08-13T04:23:59.815Z,99041.50
2023-08-13T04:26:26.343Z,99042.19
2023-08-13T04:28:53.177Z,99045.69
2023-08-13T04:31:21.377Z,99046.63
2023-08-13T04:33:49.444Z,99043.94
2023-08-13T04:36:16.254Z,99042.09
2023-08-13T04:38:42.928Z,99039.38
2023-08-13T04:41:09.623Z,99044.63
2023-08-13T04:43:36.180Z,99047.00
2023-08-13T04:46:05.751Z,99047.78
2023-08-13T04:48:50.383Z,99045.97
2023-08-13T04:51:17.574Z,99040.81
2023-08-13T04:53:44.532Z,99043.63
2023-08-13T04:56:11.289Z,99030.69
2023-08-13T04:58:38.183Z,99034.97
2023-08-13T05:01:05.295Z,99038.41
2023-08-13T05:03:32.881Z,99033.34
2023-08-13T05:05:59.710Z,99036.16
2023-08-13T05:08:26.288Z,99030.94
2023-08-13T05:10:52.956Z,99035.66
2023-08-13T05:13:19.522Z,99035.81
2023-08-13T05:15:46.252Z,99034.69
2023-08-13T05:18:12.838Z,99034.69
2023-08-13T05:20:39.357Z,99040.81
2023-08-13T05:23:05.957Z,99032.31
2023-08-13T05:25:37.647Z,99038.09
2023-08-13T05:28:04.394Z,99044.06
2023-08-13T05:30:30.964Z,99047.78
2023-08-13T05:32:57.692Z,99047.00
2023-08-13T05:35:24.208Z,99045.19
2023-08-13T05:37:50.710Z,99042.50
2023-08-13T05:40:17.309Z,99047.94
2023-08-13T05:42:43.774Z,99049.63
2023-08-13T05:45:11.543Z,99050.28
2023-08-13T05:47:38.135Z,99046.66
2023-08-13T05:50:05.555Z,99043.59
2023-08-13T05:52:32.087Z,99042.34
2023-08-13T05:54:58.592Z,99046.00
2023-08-13T05:57:25.143Z,99054.16
2023-08-13T05:59:51.746Z,99055.88
2023-08-13T06:02:18.234Z,99051.34
2023-08-13T06:04:44.820Z,99060.28
2023-08-13T06:07:11.321Z,99054.75
2023-08-13T06:09:37.865Z,99057.09
2023-08-13T06:12:04.659Z,99060.72
2023-08-13T06:14:31.220Z,99062.19
2023-08-13T06:17:08.310Z,99066.16
2023-08-13T06:19:39.203Z,99064.88
2023-08-13T06:22:05.663Z,99065.22
2023-08-13T06:24:32.869Z,99064.91
2023-08-13T06:26:59.389Z,99073.72
2023-08-13T06:29:25.902Z,99073.28
2023-08-13T06:31:52.533Z,99072.34
2023-08-13T06:34:19.153Z,99071.59
2023-08-13T06:36:45.682Z,99068.72
2023-08-13T06:39:12.203Z,99069.16
2023-08-13T06:41:39.025Z,99077.22
2023-08-13T06:44:06.918Z,99076.16
2023-08-13T06:46:33.562Z,99078.78
2023-08-13T06:49:00.210Z,99077.03
2023-08-13T06:51:26.769Z,99076.16
2023-08-13T06:53:53.305Z,99071.91
2023-08-13T06:56:19.819Z,99071.78
2023-08-13T06:58:46.299Z,99078.03
2023-08-13T07:01:12.803Z,99075.41
2023-08-13T07:03:39.336Z,99073.41
2023-08-13T07:06:05.872Z,99075.09
2023-08-13T07:08:36.022Z,99072.28
2023-08-13T07:11:02.610Z,99076.59
2023-08-13T07:13:29.314Z,99073.66
2023-08-13T07:15:55.911Z,99072.72
2023-08-13T07:18:22.577Z,99077.03
2023-08-13T07:20:49.190Z,99084.13
2023-08-13T07:23:15.650Z,99078.44
2023-08-13T07:25:42.264Z,99083.69
2023-08-13T07:28:08.776Z,99078.38
2023-08-13T07:30:35.867Z,99080.72
2023-08-13T07:33:02.482Z,99084.81
2023-08-13T07:35:29.356Z,99088.16
2023-08-13T07:37:55.922Z,99091.78
2023-08-13T07:40:22.595Z,99084.59
2023-08-13T07:42:49.050Z,99082.19
2023-08-13T07:45:15.776Z,99087.38
2023-08-13T07:47:42.469Z,99089.19
2023-08-13T07:50:09.737Z,99079.44
2023-08-13T07:52:36.710Z,99082.94
2023-08-13T07:55:04.528Z,99086.34
2023-08-13T07:57:32.182Z,99077.34
2023-08-13T07:59:59.213Z,99080.19
2023-08-13T08:02:25.809Z,99076.88
2023-08-13T08:04:52.325Z,99087.69
2023-08-13T08:07:19.992Z,99086.69
2023-08-13T08:09:46.725Z,99081.84
2023-08-13T08:12:13.677Z,99085.81
2023-08-13T08:14:40.428Z,99086.16
2023-08-13T08:17:08.324Z,99077.34
2023-08-13T08:19:34.936Z,99075.44
2023-08-13T08:22:01.514Z,99078.16
2023-08-13T08:24:28.039Z,99080.19
2023-08-13T08:26:54.549Z,99081.78
2023-08-13T08:29:21.198Z,99076.34
2023-08-13T08:31:47.751Z,99072.72
2023-08-13T08:34:14.258Z,99066.19
2023-08-13T08:36:41.559Z,99065.31
2023-08-13T08:39:08.162Z,99064.84
2023-08-13T08:41:37.684Z,99067.03
2023-08-13T08:44:07.549Z,99077.41
2023-08-13T08:46:34.891Z,99065.84
2023-08-13T08:49:01.453Z,99070.75
2023-08-13T08:51:28.056Z,99066.50
2023-08-13T08:53:54.769Z,99065.53
2023-08-13T08:56:25.141Z,99053.94
2023-08-13T08:58:51.653Z,99063.00
2023-08-13T09:01:18.190Z,99068.69
2023-08-13T09:03:44.697Z,99064.19
2023-08-13T09:06:21.583Z,99065.66
2023-08-13T09:08:50.167Z,99059.31
2023-08-13T09:11:19.425Z,99056.53
2023-08-13T09:13:50.721Z,99055.94
2023-08-13T09:16:17.944Z,99049.53
2023-08-13T09:18:44.614Z,99047.00
2023-08-13T09:21:11.127Z,99049.91
2023-08-13T09:23:40.950Z,99054.22
2023-08-13T09:26:08.368Z,99052.22
2023-08-13T09:28:35.422Z,99047.28
2023-08-13T09:31:02.156Z,99047.19
2023-08-13T09:33:28.761Z,99055.81
2023-08-13T09:35:55.252Z,99052.56
2023-08-13T09:38:21.861Z,99046.13
2023-08-13T09:40:49.172Z,99046.47
2023-08-13T09:43:20.604Z,99048.47
2023-08-13T09:45:48.771Z,99035.84
2023-08-13T09:48:19.877Z,99039.16
2023-08-13T09:50:49.541Z,99037.09
2023-08-13T09:53:16.824Z,99035.53
2023-08-13T09:55:53.008Z,99037.81
2023-08-13T09:58:20.505Z,99038.81
2023-08-13T10:00:48.522Z,99036.25
2023-08-13T10:03:18.451Z,99043.00
2023-08-13T10:05:46.077Z,99040.16
2023-08-13T10:08:19.443Z,99044.09
2023-08-13T10:10:46.435Z,99041.06
2023-08-13T10:13:13.238Z,99043.94
2023-08-13T10:15:40.856Z,99049.09
2023-08-13T10:18:07.699Z,99040.72
2023-08-13T10:20:34.378Z,99039.31
2023-08-13T10:23:02.663Z,99036.47
2023-08-13T10:25:36.670Z,99030.78
2023-08-13T10:28:21.226Z,99029.34
2023-08-13T10:30:47.927Z,99032.06
2023-08-13T10:33:15.572Z,99032.22
2023-08-13T10:35:43.292Z,99028.88
2023-08-13T10:38:12.374Z,99032.78
2023-08-13T10:40:58.176Z,99029.44
2023-08-13T10:43:24.768Z,99028.34
2023-08-13T10:45:53.075Z,99027.00
2023-08-13T10:48:27.882Z,99023.84
2023-08-13T10:50:57.700Z,99021.13
2023-08-13T10:53:27.203Z,99019.66
2023-08-13T10:55:56.084Z,99018.59
2023-08-13T10:58:25.151Z,99021.91
2023-08-13T11:00:52.321Z,99009.16
2023-08-13T11:03:25.227Z,99020.72
2023-08-13T11:05:53.239Z,99010.34
2023-08-13T11:08:30.724Z,99010.75
2023-08-13T11:11:04.590Z,99010.69
2023-08-13T11:13:31.102Z,99014.81
2023-08-13T11:15:57.614Z,99008.94
2023-08-13T11:18:24.141Z,99004.75
2023-08-13T11:20:51.329Z,99011.00
2023-08-13T11:23:19.105Z,99008.50
2023-08-13T11:25:50.402Z,99007.25
2023-08-13T11:28:20.684Z,99010.13
2023-08-13T11:30:47.767Z,99005.41
2023-08-13T11:33:15.934Z,99005.72
2023-08-13T11:35:42.614Z,99005.94
2023-08-13T11:38:09.722Z,98994.94
2023-08-13T11:40:37.333Z,99004.78
2023-08-13T11:43:07.089Z,99001.31
2023-08-13T11:45:33.988Z,99001.88
2023-08-13T11:48:21.669Z,98991.50
2023-08-13T11:51:19.951Z,98991.31
2023-08-13T11:53:49.044Z,98993.19
2023-08-13T11:56:17.267Z,98995.81
2023-08-13T11:58:44.927Z,98983.53
2023-08-13T12:01:12.590Z,98978.75
2023-08-13T12:03:44.341Z,98984.66
2023-08-13T12:06:11.960Z,98979.56
2023-08-13T12:08:39.034Z,98977.84
2023-08-13T12:11:06.865Z,98977.06
2023-08-13T12:13:41.348Z,98972.78
2023-08-13T12:16:07.982Z,98970.25
2023-08-13T12:18:34.541Z,98963.34
2023-08-13T12:21:01.066Z,98966.22
2023-08-13T12:23:27.587Z,98959.59
2023-08-13T12:25:54.078Z,98967.00
2023-08-13T12:28:20.734Z,98961.78
2023-08-13T12:30:47.246Z,98966.50
2023-08-13T12:33:13.856Z,98965.25
2023-08-13T12:35:40.491Z,98963.63
2023-08-13T12:38:06.966Z,98962.91
2023-08-13T12:40:33.476Z,98963.00
2023-08-13T12:42:59.977Z,98968.75
2023-08-13T12:45:26.507Z,98964.50
2023-08-13T12:47:53.036Z,98963.34
2023-08-13T12:50:19.596Z,98963.78
2023-08-13T12:52:46.100Z,98968.78
2023-08-13T12:55:12.788Z,98964.38
2023-08-13T12:57:39.393Z,98964.66
2023-08-13T13:00:06.785Z,98961.00
2023-08-13T13:02:33.440Z,98954.16
2023-08-13T13:05:00.106Z,98959.91
2023-08-13T13:07:29.539Z,98952.59
2023-08-13T13:09:56.100Z,98956.94
2023-08-13T13:12:23.694Z,98961.66
2023-08-13T13:14:50.280Z,98960.34
2023-08-13T13:17:16.909Z,98957.06
2023-08-13T13:19:43.775Z,98956.28
2023-08-13T13:22:14.235Z,98946.75
2023-08-13T13:24:40.935Z,98950.69
2023-08-13T13:27:07.456Z,98950.97
2023-08-13T13:29:33.959Z,98940.84
2023-08-13T13:32:01.400Z,98941.34
2023-08-13T13:34:28.063Z,98937.97
2023-08-13T13:36:55.436Z,98945.13
2023-08-13T13:39:21.942Z,98940.56
2023-08-13T13:41:51.974Z,98942.84
2023-08-13T13:44:19.095Z,98931.66
2023-08-13T13:46:45.617Z,98934.22
2023-08-13T13:49:12.100Z,98928.09
2023-08-13T13:51:38.605Z,98925.56
2023-08-13T13:54:07.646Z,98932.72
2023-08-13T13:56:34.310Z,98929.31
2023-08-13T13:59:00.903Z,98920.53
2023-08-13T14:01:27.440Z,98918.50
2023-08-13T14:03:54.025Z,98923.28
2023-08-13T14:06:20.775Z,98914.56
2023-08-13T14:08:47.308Z,98911.25
2023-08-13T14:11:13.894Z,98909.66
2023-08-13T14:13:40.360Z,98903.66
2023-08-13T14:16:06.993Z,98896.41
2023-08-13T14:18:33.522Z,98894.59
2023-08-13T14:21:00.062Z,98896.56
2023-08-13T14:23:26.562Z,98897.44
2023-08-13T14:25:54.240Z,98895.84
2023-08-13T14:28:20.740Z,98892.28
2023-08-13T14:30:47.257Z,98886.97
2023-08-13T14:33:13.884Z,98884.16
2023-08-13T14:35:40.492Z,98887.31
2023-08-13T14:38:07.058Z,98891.84
2023-08-13T14:40:33.568Z,98890.72
2023-08-13T14:43:00.095Z,98889.47
2023-08-13T14:45:26.623Z,98893.06
2023-08-13T14:47:53.243Z,98896.56
2023-08-13T14:50:20.726Z,98901.09
2023-08-13T14:52:47.269Z,98896.91
2023-08-13T14:55:16.591Z,98898.13
2023-08-13T14:57:43.421Z,98902.38
2023-08-13T15:00:10.176Z,98894.78
2023-08-13T15:02:37.248Z,98897.03
2023-08-13T15:05:04.264Z,98889.75
2023-08-13T15:07:30.759Z,98889.88
2023-08-13T15:09:57.397Z,98892.59
2023-08-13T15:12:39.340Z,98892.69
2023-08-13T15:15:08.397Z,98894.06
2023-08-13T15:17:38.251Z,98892.16
2023-08-13T15:20:08.864Z,98897.38
2023-08-13T15:22:36.047Z,98895.81
2023-08-13T15:25:04.079Z,98888.72
2023-08-13T15:27:31.085Z,98882.63
2023-08-13T15:29:57.735Z,98902.59
2023-08-13T15:32:24.306Z,98886.47
2023-08-13T15:34:50.802Z,98893.53
2023-08-13T15:37:17.314Z,98887.44
2023-08-13T15:39:46.235Z,98893.94
2023-08-13T15:42:12.806Z,98888.72
2023-08-13T15:44:39.768Z,98899.22
2023-08-13T15:47:06.471Z,98891.03
2023-08-13T15:49:33.038Z,98888.22
2023-08-13T15:52:00.372Z,98893.63
2023-08-13T15:54:26.936Z,98892.94
2023-08-13T15:56:53.409Z,98896.59
2023-08-13T15:59:19.922Z,98898.66
2023-08-13T16:01:48.014Z,98896.78
2023-08-13T16:04:14.960Z,98893.97
2023-08-13T16:06:42.699Z,98889.19
2023-08-13T16:09:09.262Z,98897.47
2023-08-13T16:11:36.126Z,98898.25
2023-08-13T16:14:02.648Z,98891.91
2023-08-13T16:16:29.221Z,98895.38
2023-08-13T16:18:55.827Z,98898.72
2023-08-13T16:21:22.945Z,98890.44
2023-08-13T16:23:57.537Z,98891.22
2023-08-13T16:26:27.676Z,98892.97
2023-08-13T16:28:54.182Z,98887.75
2023-08-13T16:31:20.711Z,98888.78
2023-08-13T16:33:47.358Z,98877.13
2023-08-13T16:36:13.857Z,98886.34
2023-08-13T16:38:40.411Z,98873.78
2023-08-13T16:41:06.883Z,98869.28
2023-08-13T16:43:33.479Z,98875.53
2023-08-13T16:45:59.989Z,98876.41
2023-08-13T16:48:26.583Z,98871.88
2023-08-13T16:50:53.134Z,98873.78
2023-08-13T16:53:19.707Z,98867.84
2023-08-13T16:55:46.306Z,98869.75
2023-08-13T16:58:12.968Z,98874.28
2023-08-13T17:00:40.505Z,98866.28
2023-08-13T17:03:07.058Z,98867.25
2023-08-13T17:05:33.583Z,98869.16
2023-08-13T17:08:00.053Z,98867.78
2023-08-13T17:10:26.604Z,98869.66
2023-08-13T17:12:53.132Z,98867.91
2023-08-13T17:15:24.981Z,98870.78
2023-08-13T17:17:56.282Z,98871.75
2023-08-13T17:20:23.438Z,98861.72
2023-08-13T17:22:50.445Z,98864.41
2023-08-13T17:25:17.075Z,98868.88
2023-08-13T17:27:43.646Z,98868.00
2023-08-13T17:30:10.542Z,98874.44
2023-08-13T17:32:37.072Z,98868.25
2023-08-13T17:35:04.617Z,98871.91
2023-08-13T17:37:32.962Z,98876.53
2023-08-13T17:40:00.961Z,98873.09
2023-08-13T17:42:27.482Z,98871.50
2023-08-13T17:44:56.751Z,98870.81
2023-08-13T17:47:23.395Z,98878.91
2023-08-13T17:49:50.837Z,98869.13
2023-08-13T17:52:17.373Z,98881.19
2023-08-13T17:54:43.883Z,98880.56
2023-08-13T17:57:10.405Z,98877.94
2023-08-13T17:59:37.452Z,98880.97
2023-08-13T18:02:04.063Z,98884.91
2023-08-13T18:04:30.730Z,98886.97
2023-08-13T18:07:00.654Z,98890.75
2023-08-13T18:09:27.286Z,98882.31
2023-08-13T18:11:53.860Z,98893.34
2023-08-13T18:14:20.798Z,98885.53
2023-08-13T18:16:47.338Z,98889.50
2023-08-13T18:19:14.219Z,98894.38
2023-08-13T18:21:43.634Z,98899.06
2023-08-13T18:24:10.097Z,98897.47
2023-08-13T18:26:36.682Z,98899.06
2023-08-13T18:29:04.441Z,98895.94
2023-08-13T18:31:31.110Z,98897.22
2023-08-13T18:33:57.639Z,98900.34
2023-08-13T18:36:24.219Z,98906.94
2023-08-13T18:38:50.720Z,98904.41
2023-08-13T18:41:17.253Z,98903.81
2023-08-13T18:43:43.880Z,98901.53
2023-08-13T18:46:11.418Z,98912.56
2023-08-13T18:48:38.294Z,98911.78
2023-08-13T18:51:04.909Z,98909.22
2023-08-13T18:53:31.433Z,98911.22
2023-08-13T18:55:58.220Z,98917.72
2023-08-13T18:58:24.776Z,98922.53
2023-08-13T19:00:51.525Z,98922.69
2023-08-13T19:03:18.449Z,98929.81
2023-08-13T19:05:46.016Z,98930.84
2023-08-13T19:08:12.827Z,98929.16
2023-08-13T19:10:46.242Z,98930.22
2023-08-13T19:13:14.373Z,98935.75
2023-08-13T19:15:41.410Z,98930.47
2023-08-13T19:18:10.218Z,98936.16
2023-08-13T19:20:36.876Z,98937.25
2023-08-13T19:23:03.667Z,98942.84
2023-08-13T19:25:30.618Z,98944.75
2023-08-13T19:27:57.413Z,98944.16
2023-08-13T19:30:24.006Z,98937.13
2023-08-13T19:32:50.784Z,98942.84
2023-08-13T19:35:17.573Z,98940.31
2023-08-13T19:37:44.127Z,98937.84
2023-08-13T19:40:12.098Z,98942.47
2023-08-13T19:42:38.782Z,98942.59
2023-08-13T19:45:05.801Z,98938.28
2023-08-13T19:47:32.512Z,98942.84
2023-08-13T19:49:59.116Z,98932.38
2023-08-13T19:52:25.753Z,98932.66
2023-08-13T19:54:52.333Z,98927.50
2023-08-13T19:57:18.947Z,98935.72
2023-08-13T19:59:45.455Z,98928.72
2023-08-13T20:02:11.988Z,98924.19
2023-08-13T20:04:38.557Z,98929.31
2023-08-13T20:07:05.167Z,98932.06
2023-08-13T20:09:31.811Z,98924.25
2023-08-13T20:11:58.483Z,98933.47
2023-08-13T20:14:24.975Z,98934.56
2023-08-13T20:16:51.514Z,98932.31
2023-08-13T20:19:18.903Z,98934.22
2023-08-13T20:21:50.296Z,98931.78
2023-08-13T20:24:18.374Z,98937.22
2023-08-13T20:26:45.665Z,98929.38
2023-08-13T20:29:15.326Z,98934.81
2023-08-13T20:31:43.221Z,98934.00
2023-08-13T20:34:09.940Z,98925.88
2023-08-13T20:36:36.495Z,98935.22
2023-08-13T20:39:03.106Z,98922.84
2023-08-13T20:41:30.895Z,98930.97
2023-08-13T20:43:57.472Z,98925.63
2023-08-13T20:46:23.994Z,98929.44
2023-08-13T20:48:50.537Z,98927.81
2023-08-13T20:51:19.821Z,98926.81
2023-08-13T20:53:46.333Z,98937.69
2023-08-13T20:56:12.945Z,98938.88
2023-08-13T20:58:43.008Z,98941.63
2023-08-13T21:01:09.493Z,98944.19
2023-08-13T21:03:36.074Z,98933.25
2023-08-13T21:06:02.591Z,98934.09
2023-08-13T21:08:29.081Z,98937.59
2023-08-13T21:10:55.612Z,98940.09
2023-08-13T21:13:22.150Z,98932.28
2023-08-13T21:15:48.705Z,98931.69
2023-08-13T21:18:15.306Z,98942.66
2023-08-13T21:20:41.851Z,98944.75
2023-08-13T21:23:08.407Z,98938.59
2023-08-13T21:25:34.950Z,98941.97
2023-08-13T21:28:01.561Z,98938.28
2023-08-13T21:30:28.064Z,98927.38
2023-08-13T21:32:55.986Z,98932.97
2023-08-13T21:35:24.100Z,98935.78
2023-08-13T21:37:50.673Z,98935.00
2023-08-13T21:40:17.531Z,98935.91
2023-08-13T21:42:44.152Z,98929.69
2023-08-13T21:45:11.498Z,98933.25
2023-08-13T21:47:39.111Z,98932.59
2023-08-13T21:50:06.221Z,98938.03
2023-08-13T21:52:32.727Z,98932.41
2023-08-13T21:54:59.269Z,98929.03
2023-08-13T21:57:25.763Z,98932.91
2023-08-13T21:59:52.319Z,98927.75
2023-08-13T22:02:19.100Z,98930.34
2023-08-13T22:04:45.753Z,98928.38
2023-08-13T22:07:12.419Z,98933.09
2023-08-13T22:09:38.938Z,98933.44
2023-08-13T22:12:09.041Z,98935.50
2023-08-13T22:14:35.667Z,98941.84
2023-08-13T22:17:02.187Z,98934.88
2023-08-13T22:19:51.563Z,98954.53
2023-08-13T22:22:19.838Z,98961.50
2023-08-13T22:24:47.456Z,98959.47
2023-08-13T22:27:14.139Z,98958.41
2023-08-13T22:29:41.031Z,98960.31
2023-08-13T22:32:07.832Z,98955.84
2023-08-13T22:34:34.528Z,98959.81
2023-08-13T22:37:01.079Z,98960.88
2023-08-13T22:39:30.686Z,98961.78
2023-08-13T22:41:58.156Z,98969.84
2023-08-13T22:44:24.864Z,98970.78
2023-08-13T22:46:53.871Z,98955.63
2023-08-13T22:49:31.247Z,98960.88
2023-08-13T22:51:58.037Z,98958.28
2023-08-13T22:54:24.724Z,98964.47
2023-08-13T22:56:51.261Z,98966.13
2023-08-13T22:59:17.759Z,98969.50
2023-08-13T23:01:49.785Z,98965.81
2023-08-13T23:04:16.352Z,98969.66
2023-08-13T23:06:42.918Z,98956.50
2023-08-13T23:09:09.924Z,98973.63
2023-08-13T23:11:36.555Z,98970.88
2023-08-13T23:14:03.144Z,98968.31
2023-08-13T23:16:32.115Z,98974.66
2023-08-13T23:18:58.601Z,98961.50
2023-08-13T23:21:31.568Z,98957.06
2023-08-13T23:23:59.790Z,98964.28
2023-08-13T23:26:26.477Z,98971.31
2023-08-13T23:28:53.036Z,98968.50
2023-08-13T23:31:19.679Z,98962.25
2023-08-13T23:33:48.915Z,98961.31
2023-08-13T23:36:17.016Z,98959.63
2023-08-13T23:38:44.211Z,98955.28
2023-08-13T23:41:10.835Z,98949.03
2023-08-13T23:43:37.759Z,98945.28
2023-08-13T23:46:06.920Z,98946.94
2023-08-13T23:48:39.531Z,98941.56
2023-08-13T23:51:07.018Z,98934.63
2023-08-13T23:53:33.911Z,98942.78
2023-08-13T23:56:02.725Z,98929.72
2023-08-13T23:58:29.251Z,98939.47
